sensor_id;sensor_type;location;lat;lon;timestamp;temperature;humidity
27896;DHT22;15241;48.374;10.876;2023-07-16T00:01:12;24.30;99.90
27896;DHT22;15241;48.374;10.876;2023-07-16T00:06:29;24.40;99.90
27896;DHT22;15241;48.374;10.876;2023-07-16T00:11:47;24.20;99.90
27896;DHT22;15241;48.374;10.876;2023-07-16T00:17:05;24.20;99.90
27896;DHT22;15241;48.374;10.876;2023-07-16T00:22:22;24.00;99.90
27896;DHT22;15241;48.374;10.876;2023-07-16T00:27:40;23.90;99.90
27896;DHT22;15241;48.374;10.876;2023-07-16T00:32:57;23.80;99.90
27896;DHT22;15241;48.374;10.876;2023-07-16T00:38:16;23.80;99.90
27896;DHT22;15241;48.374;10.876;2023-07-16T00:43:34;23.80;99.90
27896;DHT22;15241;48.374;10.876;2023-07-16T00:48:51;23.80;99.90
27896;DHT22;15241;48.374;10.876;2023-07-16T00:54:09;23.70;99.90
27896;DHT22;15241;48.374;10.876;2023-07-16T00:59:26;23.80;99.90
27896;DHT22;15241;48.374;10.876;2023-07-16T01:04:43;23.80;99.90
27896;DHT22;15241;48.374;10.876;2023-07-16T01:10:01;23.70;99.90
27896;DHT22;15241;48.374;10.876;2023-07-16T01:15:19;23.70;99.90
27896;DHT22;15241;48.374;10.876;2023-07-16T01:20:36;23.60;99.90
27896;DHT22;15241;48.374;10.876;2023-07-16T01:26:18;23.60;99.90
27896;DHT22;15241;48.374;10.876;2023-07-16T01:31:38;23.50;99.90
27896;DHT22;15241;48.374;10.876;2023-07-16T01:36:57;23.30;99.90
27896;DHT22;15241;48.374;10.876;2023-07-16T01:42:15;23.30;99.90
27896;DHT22;15241;48.374;10.876;2023-07-16T01:47:35;23.20;99.90
27896;DHT22;15241;48.374;10.876;2023-07-16T01:52:53;23.20;99.90
27896;DHT22;15241;48.374;10.876;2023-07-16T01:58:10;23.20;99.90
27896;DHT22;15241;48.374;10.876;2023-07-16T02:03:28;23.20;99.90
27896;DHT22;15241;48.374;10.876;2023-07-16T02:08:45;23.10;99.90
27896;DHT22;15241;48.374;10.876;2023-07-16T02:14:02;23.20;99.90
27896;DHT22;15241;48.374;10.876;2023-07-16T02:19:19;23.10;99.90
27896;DHT22;15241;48.374;10.876;2023-07-16T02:24:37;23.00;99.90
27896;DHT22;15241;48.374;10.876;2023-07-16T02:29:56;22.90;99.90
27896;DHT22;15241;48.374;10.876;2023-07-16T02:35:15;22.90;99.90
27896;DHT22;15241;48.374;10.876;2023-07-16T02:40:32;22.80;99.90
27896;DHT22;15241;48.374;10.876;2023-07-16T02:45:50;22.80;99.90
27896;DHT22;15241;48.374;10.876;2023-07-16T02:51:06;22.70;99.90
27896;DHT22;15241;48.374;10.876;2023-07-16T02:56:24;22.70;99.90
27896;DHT22;15241;48.374;10.876;2023-07-16T03:01:42;22.60;99.90
27896;DHT22;15241;48.374;10.876;2023-07-16T03:07:00;22.70;99.90
27896;DHT22;15241;48.374;10.876;2023-07-16T03:12:17;22.60;99.90
27896;DHT22;15241;48.374;10.876;2023-07-16T03:17:34;22.60;99.90
27896;DHT22;15241;48.374;10.876;2023-07-16T03:22:52;22.60;99.90
27896;DHT22;15241;48.374;10.876;2023-07-16T03:28:09;22.50;99.90
27896;DHT22;15241;48.374;10.876;2023-07-16T03:33:26;22.50;99.90
27896;DHT22;15241;48.374;10.876;2023-07-16T03:38:43;22.40;99.90
27896;DHT22;15241;48.374;10.876;2023-07-16T03:44:01;22.50;99.90
27896;DHT22;15241;48.374;10.876;2023-07-16T03:49:19;22.30;99.90
27896;DHT22;15241;48.374;10.876;2023-07-16T03:54:37;22.20;99.90
27896;DHT22;15241;48.374;10.876;2023-07-16T03:59:54;22.20;99.90
27896;DHT22;15241;48.374;10.876;2023-07-16T04:05:12;22.00;99.90
27896;DHT22;15241;48.374;10.876;2023-07-16T04:10:29;21.90;99.90
27896;DHT22;15241;48.374;10.876;2023-07-16T04:15:47;21.80;99.90
27896;DHT22;15241;48.374;10.876;2023-07-16T04:21:04;21.80;99.90
27896;DHT22;15241;48.374;10.876;2023-07-16T04:26:22;21.90;99.90
27896;DHT22;15241;48.374;10.876;2023-07-16T04:31:40;22.00;99.90
27896;DHT22;15241;48.374;10.876;2023-07-16T04:36:57;21.90;99.90
27896;DHT22;15241;48.374;10.876;2023-07-16T04:42:14;21.90;99.90
27896;DHT22;15241;48.374;10.876;2023-07-16T04:47:32;21.90;99.90
27896;DHT22;15241;48.374;10.876;2023-07-16T04:52:49;21.90;99.90
27896;DHT22;15241;48.374;10.876;2023-07-16T04:58:07;21.90;99.90
27896;DHT22;15241;48.374;10.876;2023-07-16T05:03:24;22.00;99.90
27896;DHT22;15241;48.374;10.876;2023-07-16T05:08:42;22.00;99.90
27896;DHT22;15241;48.374;10.876;2023-07-16T05:14:00;22.00;99.90
27896;DHT22;15241;48.374;10.876;2023-07-16T05:19:17;22.00;99.90
27896;DHT22;15241;48.374;10.876;2023-07-16T05:24:35;22.10;99.90
27896;DHT22;15241;48.374;10.876;2023-07-16T05:29:53;22.30;99.90
27896;DHT22;15241;48.374;10.876;2023-07-16T05:35:10;22.30;99.90
27896;DHT22;15241;48.374;10.876;2023-07-16T05:40:28;22.30;99.90
27896;DHT22;15241;48.374;10.876;2023-07-16T05:45:45;22.30;99.90
27896;DHT22;15241;48.374;10.876;2023-07-16T05:51:03;22.30;99.90
27896;DHT22;15241;48.374;10.876;2023-07-16T05:56:21;22.30;99.90
27896;DHT22;15241;48.374;10.876;2023-07-16T06:01:38;22.40;99.90
27896;DHT22;15241;48.374;10.876;2023-07-16T06:06:57;22.40;99.90
27896;DHT22;15241;48.374;10.876;2023-07-16T06:12:15;22.50;99.90
27896;DHT22;15241;48.374;10.876;2023-07-16T06:17:32;22.40;99.90
27896;DHT22;15241;48.374;10.876;2023-07-16T06:22:50;22.40;99.90
27896;DHT22;15241;48.374;10.876;2023-07-16T06:28:08;22.50;99.90
27896;DHT22;15241;48.374;10.876;2023-07-16T06:33:26;22.50;99.90
27896;DHT22;15241;48.374;10.876;2023-07-16T06:38:43;22.40;99.90
27896;DHT22;15241;48.374;10.876;2023-07-16T06:44:01;22.30;99.90
27896;DHT22;15241;48.374;10.876;2023-07-16T06:49:18;21.70;99.90
27896;DHT22;15241;48.374;10.876;2023-07-16T06:54:36;21.30;99.90
27896;DHT22;15241;48.374;10.876;2023-07-16T06:59:54;21.40;99.90
27896;DHT22;15241;48.374;10.876;2023-07-16T07:05:12;21.20;99.90
27896;DHT22;15241;48.374;10.876;2023-07-16T07:10:30;21.20;99.90
27896;DHT22;15241;48.374;10.876;2023-07-16T07:15:47;20.90;99.90
27896;DHT22;15241;48.374;10.876;2023-07-16T07:21:05;20.70;99.90
27896;DHT22;15241;48.374;10.876;2023-07-16T07:26:22;20.60;99.90
27896;DHT22;15241;48.374;10.876;2023-07-16T07:31:40;20.60;99.90
27896;DHT22;15241;48.374;10.876;2023-07-16T07:36:58;20.70;99.90
27896;DHT22;15241;48.374;10.876;2023-07-16T07:42:15;20.60;99.90
27896;DHT22;15241;48.374;10.876;2023-07-16T07:47:33;20.80;99.90
27896;DHT22;15241;48.374;10.876;2023-07-16T07:52:51;21.10;99.90
27896;DHT22;15241;48.374;10.876;2023-07-16T07:58:10;21.10;99.90
27896;DHT22;15241;48.374;10.876;2023-07-16T08:03:28;21.40;99.90
27896;DHT22;15241;48.374;10.876;2023-07-16T08:08:45;21.60;99.90
27896;DHT22;15241;48.374;10.876;2023-07-16T08:14:03;21.80;99.90
27896;DHT22;15241;48.374;10.876;2023-07-16T08:19:20;22.10;99.90
27896;DHT22;15241;48.374;10.876;2023-07-16T08:24:37;22.20;99.90
27896;DHT22;15241;48.374;10.876;2023-07-16T08:29:55;22.40;99.90
27896;DHT22;15241;48.374;10.876;2023-07-16T08:35:13;22.30;99.90
27896;DHT22;15241;48.374;10.876;2023-07-16T08:40:30;22.60;99.90
27896;DHT22;15241;48.374;10.876;2023-07-16T08:45:47;22.50;99.90
27896;DHT22;15241;48.374;10.876;2023-07-16T08:51:07;22.80;99.90
27896;DHT22;15241;48.374;10.876;2023-07-16T08:56:25;23.00;99.90
27896;DHT22;15241;48.374;10.876;2023-07-16T09:01:43;22.90;99.90
27896;DHT22;15241;48.374;10.876;2023-07-16T09:07:01;23.30;99.90
27896;DHT22;15241;48.374;10.876;2023-07-16T09:12:18;23.50;99.90
27896;DHT22;15241;48.374;10.876;2023-07-16T09:17:36;23.80;99.90
27896;DHT22;15241;48.374;10.876;2023-07-16T09:22:55;24.10;99.90
27896;DHT22;15241;48.374;10.876;2023-07-16T09:28:13;24.50;99.90
27896;DHT22;15241;48.374;10.876;2023-07-16T09:33:32;25.10;99.90
27896;DHT22;15241;48.374;10.876;2023-07-16T09:38:50;25.40;99.90
27896;DHT22;15241;48.374;10.876;2023-07-16T09:44:08;25.90;99.90
27896;DHT22;15241;48.374;10.876;2023-07-16T09:49:28;26.40;99.90
27896;DHT22;15241;48.374;10.876;2023-07-16T09:54:47;26.50;99.90
27896;DHT22;15241;48.374;10.876;2023-07-16T10:00:09;26.60;99.90
27896;DHT22;15241;48.374;10.876;2023-07-16T10:05:28;27.20;99.90
27896;DHT22;15241;48.374;10.876;2023-07-16T10:10:47;27.50;99.90
27896;DHT22;15241;48.374;10.876;2023-07-16T10:16:05;27.70;99.90
27896;DHT22;15241;48.374;10.876;2023-07-16T10:21:26;27.80;99.90
27896;DHT22;15241;48.374;10.876;2023-07-16T10:26:43;28.20;99.90
27896;DHT22;15241;48.374;10.876;2023-07-16T10:32:00;28.40;99.90
27896;DHT22;15241;48.374;10.876;2023-07-16T10:37:19;28.60;99.90
27896;DHT22;15241;48.374;10.876;2023-07-16T10:42:36;28.40;99.90
27896;DHT22;15241;48.374;10.876;2023-07-16T10:47:54;28.40;99.90
27896;DHT22;15241;48.374;10.876;2023-07-16T10:53:12;28.60;99.90
27896;DHT22;15241;48.374;10.876;2023-07-16T10:58:29;28.90;99.90
27896;DHT22;15241;48.374;10.876;2023-07-16T11:03:46;29.00;99.90
27896;DHT22;15241;48.374;10.876;2023-07-16T11:09:07;29.20;99.90
27896;DHT22;15241;48.374;10.876;2023-07-16T11:14:25;29.50;99.90
27896;DHT22;15241;48.374;10.876;2023-07-16T11:19:45;30.00;99.90
27896;DHT22;15241;48.374;10.876;2023-07-16T11:25:10;30.20;99.90
27896;DHT22;15241;48.374;10.876;2023-07-16T11:30:24;30.50;99.90
27896;DHT22;15241;48.374;10.876;2023-07-16T11:35:42;30.70;99.90
27896;DHT22;15241;48.374;10.876;2023-07-16T11:41:01;31.20;99.90
27896;DHT22;15241;48.374;10.876;2023-07-16T11:46:18;31.20;99.90
27896;DHT22;15241;48.374;10.876;2023-07-16T11:51:36;31.20;99.90
27896;DHT22;15241;48.374;10.876;2023-07-16T11:56:53;31.60;99.90
27896;DHT22;15241;48.374;10.876;2023-07-16T12:02:11;31.20;99.90
27896;DHT22;15241;48.374;10.876;2023-07-16T12:07:34;31.30;99.90
27896;DHT22;15241;48.374;10.876;2023-07-16T12:12:51;31.30;99.90
27896;DHT22;15241;48.374;10.876;2023-07-16T12:18:08;31.80;99.90
27896;DHT22;15241;48.374;10.876;2023-07-16T12:23:26;31.60;99.90
27896;DHT22;15241;48.374;10.876;2023-07-16T12:28:43;31.70;99.90
27896;DHT22;15241;48.374;10.876;2023-07-16T12:34:02;32.00;99.90
27896;DHT22;15241;48.374;10.876;2023-07-16T12:39:19;32.10;99.90
27896;DHT22;15241;48.374;10.876;2023-07-16T12:44:36;31.90;99.40
27896;DHT22;15241;48.374;10.876;2023-07-16T12:49:54;31.80;99.70
27896;DHT22;15241;48.374;10.876;2023-07-16T12:55:12;32.00;99.90
27896;DHT22;15241;48.374;10.876;2023-07-16T13:00:29;32.40;99.90
27896;DHT22;15241;48.374;10.876;2023-07-16T13:05:47;32.20;98.40
27896;DHT22;15241;48.374;10.876;2023-07-16T13:11:05;31.90;97.80
27896;DHT22;15241;48.374;10.876;2023-07-16T13:16:23;32.30;99.30
27896;DHT22;15241;48.374;10.876;2023-07-16T13:21:40;32.40;97.90
27896;DHT22;15241;48.374;10.876;2023-07-16T13:26:58;32.80;99.70
27896;DHT22;15241;48.374;10.876;2023-07-16T13:32:16;32.90;97.80
27896;DHT22;15241;48.374;10.876;2023-07-16T13:37:33;33.20;98.70
27896;DHT22;15241;48.374;10.876;2023-07-16T13:42:51;33.00;97.80
27896;DHT22;15241;48.374;10.876;2023-07-16T13:48:08;33.30;97.60
27896;DHT22;15241;48.374;10.876;2023-07-16T13:53:26;33.50;96.90
27896;DHT22;15241;48.374;10.876;2023-07-16T13:58:43;33.30;96.60
27896;DHT22;15241;48.374;10.876;2023-07-16T14:04:00;33.20;96.40
27896;DHT22;15241;48.374;10.876;2023-07-16T14:09:17;33.00;96.20
27896;DHT22;15241;48.374;10.876;2023-07-16T14:14:35;33.10;94.80
27896;DHT22;15241;48.374;10.876;2023-07-16T14:19:53;33.30;96.60
27896;DHT22;15241;48.374;10.876;2023-07-16T14:25:10;33.30;96.00
27896;DHT22;15241;48.374;10.876;2023-07-16T14:30:28;33.30;96.10
27896;DHT22;15241;48.374;10.876;2023-07-16T14:35:45;33.20;96.40
27896;DHT22;15241;48.374;10.876;2023-07-16T14:41:03;33.20;96.00
27896;DHT22;15241;48.374;10.876;2023-07-16T14:46:21;33.60;96.50
27896;DHT22;15241;48.374;10.876;2023-07-16T14:51:39;33.50;95.10
27896;DHT22;15241;48.374;10.876;2023-07-16T14:56:56;33.60;95.00
27896;DHT22;15241;48.374;10.876;2023-07-16T15:02:13;33.80;94.60
27896;DHT22;15241;48.374;10.876;2023-07-16T15:07:31;33.90;94.50
27896;DHT22;15241;48.374;10.876;2023-07-16T15:12:48;33.80;95.30
27896;DHT22;15241;48.374;10.876;2023-07-16T15:18:06;34.00;95.00
27896;DHT22;15241;48.374;10.876;2023-07-16T15:23:24;33.70;94.30
27896;DHT22;15241;48.374;10.876;2023-07-16T15:28:42;33.60;94.90
27896;DHT22;15241;48.374;10.876;2023-07-16T15:33:59;33.90;95.80
27896;DHT22;15241;48.374;10.876;2023-07-16T15:39:17;34.00;95.20
27896;DHT22;15241;48.374;10.876;2023-07-16T15:44:34;34.00;94.50
27896;DHT22;15241;48.374;10.876;2023-07-16T15:49:52;33.90;94.00
27896;DHT22;15241;48.374;10.876;2023-07-16T15:55:10;33.40;94.40
27896;DHT22;15241;48.374;10.876;2023-07-16T16:00:27;33.20;94.80
27896;DHT22;15241;48.374;10.876;2023-07-16T16:05:45;33.10;94.70
27896;DHT22;15241;48.374;10.876;2023-07-16T16:11:02;32.80;95.50
27896;DHT22;15241;48.374;10.876;2023-07-16T16:16:19;33.00;95.50
27896;DHT22;15241;48.374;10.876;2023-07-16T16:21:37;32.80;95.10
27896;DHT22;15241;48.374;10.876;2023-07-16T16:26:54;32.60;94.60
27896;DHT22;15241;48.374;10.876;2023-07-16T16:32:12;32.60;96.00
27896;DHT22;15241;48.374;10.876;2023-07-16T16:37:30;32.50;95.00
27896;DHT22;15241;48.374;10.876;2023-07-16T16:42:47;32.30;95.60
27896;DHT22;15241;48.374;10.876;2023-07-16T16:48:05;32.10;95.80
27896;DHT22;15241;48.374;10.876;2023-07-16T16:53:23;32.00;96.20
27896;DHT22;15241;48.374;10.876;2023-07-16T16:58:40;31.80;96.20
27896;DHT22;15241;48.374;10.876;2023-07-16T17:03:57;31.40;96.40
27896;DHT22;15241;48.374;10.876;2023-07-16T17:09:15;31.10;96.40
27896;DHT22;15241;48.374;10.876;2023-07-16T17:14:33;30.90;96.80
27896;DHT22;15241;48.374;10.876;2023-07-16T17:19:53;30.60;97.30
27896;DHT22;15241;48.374;10.876;2023-07-16T17:25:09;30.40;97.10
27896;DHT22;15241;48.374;10.876;2023-07-16T17:30:26;30.20;98.20
27896;DHT22;15241;48.374;10.876;2023-07-16T17:35:44;29.80;97.90
27896;DHT22;15241;48.374;10.876;2023-07-16T17:41:02;29.60;98.60
27896;DHT22;15241;48.374;10.876;2023-07-16T17:46:21;29.50;98.40
27896;DHT22;15241;48.374;10.876;2023-07-16T17:51:38;29.40;98.70
27896;DHT22;15241;48.374;10.876;2023-07-16T17:56:56;29.30;98.90
27896;DHT22;15241;48.374;10.876;2023-07-16T18:02:13;28.90;98.60
27896;DHT22;15241;48.374;10.876;2023-07-16T18:07:31;28.80;98.80
27896;DHT22;15241;48.374;10.876;2023-07-16T18:12:48;28.60;99.00
27896;DHT22;15241;48.374;10.876;2023-07-16T18:18:06;28.50;99.30
27896;DHT22;15241;48.374;10.876;2023-07-16T18:23:23;28.40;99.80
27896;DHT22;15241;48.374;10.876;2023-07-16T18:28:41;28.20;99.90
27896;DHT22;15241;48.374;10.876;2023-07-16T18:33:58;28.00;99.90
27896;DHT22;15241;48.374;10.876;2023-07-16T18:39:16;27.70;99.90
27896;DHT22;15241;48.374;10.876;2023-07-16T18:44:33;27.50;99.90
27896;DHT22;15241;48.374;10.876;2023-07-16T18:49:51;27.30;99.90
27896;DHT22;15241;48.374;10.876;2023-07-16T18:55:10;27.10;99.90
27896;DHT22;15241;48.374;10.876;2023-07-16T19:00:27;26.90;99.90
27896;DHT22;15241;48.374;10.876;2023-07-16T19:05:45;26.80;99.90
27896;DHT22;15241;48.374;10.876;2023-07-16T19:11:02;26.70;99.90
27896;DHT22;15241;48.374;10.876;2023-07-16T19:16:20;26.60;99.90
27896;DHT22;15241;48.374;10.876;2023-07-16T19:21:37;26.40;99.90
27896;DHT22;15241;48.374;10.876;2023-07-16T19:26:55;26.30;99.90
27896;DHT22;15241;48.374;10.876;2023-07-16T19:32:12;26.20;99.90
27896;DHT22;15241;48.374;10.876;2023-07-16T19:37:29;26.10;99.90
27896;DHT22;15241;48.374;10.876;2023-07-16T19:42:46;26.00;99.90
27896;DHT22;15241;48.374;10.876;2023-07-16T19:48:05;25.80;99.90
27896;DHT22;15241;48.374;10.876;2023-07-16T19:53:22;25.70;99.90
27896;DHT22;15241;48.374;10.876;2023-07-16T19:58:40;25.60;99.90
27896;DHT22;15241;48.374;10.876;2023-07-16T20:03:58;25.50;99.90
27896;DHT22;15241;48.374;10.876;2023-07-16T20:09:16;25.50;99.90
27896;DHT22;15241;48.374;10.876;2023-07-16T20:14:33;25.40;99.90
27896;DHT22;15241;48.374;10.876;2023-07-16T20:19:51;25.30;99.90
27896;DHT22;15241;48.374;10.876;2023-07-16T20:25:10;25.20;99.90
27896;DHT22;15241;48.374;10.876;2023-07-16T20:30:27;25.20;99.90
27896;DHT22;15241;48.374;10.876;2023-07-16T20:35:45;25.20;99.90
27896;DHT22;15241;48.374;10.876;2023-07-16T20:41:02;25.20;99.90
27896;DHT22;15241;48.374;10.876;2023-07-16T20:46:20;25.10;99.90
27896;DHT22;15241;48.374;10.876;2023-07-16T20:51:37;25.00;99.90
27896;DHT22;15241;48.374;10.876;2023-07-16T20:56:55;25.10;99.90
27896;DHT22;15241;48.374;10.876;2023-07-16T21:02:12;25.00;99.90
27896;DHT22;15241;48.374;10.876;2023-07-16T21:07:30;25.00;99.90
27896;DHT22;15241;48.374;10.876;2023-07-16T21:12:48;25.00;99.90
27896;DHT22;15241;48.374;10.876;2023-07-16T21:18:05;24.90;99.90
27896;DHT22;15241;48.374;10.876;2023-07-16T21:23:23;24.80;99.90
27896;DHT22;15241;48.374;10.876;2023-07-16T21:28:41;24.80;99.90
27896;DHT22;15241;48.374;10.876;2023-07-16T21:33:58;24.60;99.90
27896;DHT22;15241;48.374;10.876;2023-07-16T21:39:15;24.40;99.90
27896;DHT22;15241;48.374;10.876;2023-07-16T21:44:33;24.20;99.90
27896;DHT22;15241;48.374;10.876;2023-07-16T21:49:51;24.10;99.90
27896;DHT22;15241;48.374;10.876;2023-07-16T21:55:10;24.10;99.90
27896;DHT22;15241;48.374;10.876;2023-07-16T22:00:28;24.10;99.90
27896;DHT22;15241;48.374;10.876;2023-07-16T22:05:45;24.10;99.90
27896;DHT22;15241;48.374;10.876;2023-07-16T22:11:03;24.10;99.90
27896;DHT22;15241;48.374;10.876;2023-07-16T22:16:20;24.00;99.90
27896;DHT22;15241;48.374;10.876;2023-07-16T22:21:38;23.80;99.90
27896;DHT22;15241;48.374;10.876;2023-07-16T22:26:55;23.60;99.90
27896;DHT22;15241;48.374;10.876;2023-07-16T22:32:13;23.50;99.90
27896;DHT22;15241;48.374;10.876;2023-07-16T22:37:31;23.50;99.90
27896;DHT22;15241;48.374;10.876;2023-07-16T22:42:48;23.40;99.90
27896;DHT22;15241;48.374;10.876;2023-07-16T22:48:07;23.20;99.90
27896;DHT22;15241;48.374;10.876;2023-07-16T22:53:24;23.30;99.90
27896;DHT22;15241;48.374;10.876;2023-07-16T22:58:42;23.20;99.90
27896;DHT22;15241;48.374;10.876;2023-07-16T23:03:59;23.20;99.90
27896;DHT22;15241;48.374;10.876;2023-07-16T23:09:17;23.30;99.90
27896;DHT22;15241;48.374;10.876;2023-07-16T23:14:34;23.30;99.90
27896;DHT22;15241;48.374;10.876;2023-07-16T23:19:51;23.10;99.90
27896;DHT22;15241;48.374;10.876;2023-07-16T23:25:10;23.00;99.90
27896;DHT22;15241;48.374;10.876;2023-07-16T23:30:27;23.10;99.90
27896;DHT22;15241;48.374;10.876;2023-07-16T23:35:44;23.10;99.90
27896;DHT22;15241;48.374;10.876;2023-07-16T23:41:02;23.00;99.90
27896;DHT22;15241;48.374;10.876;2023-07-16T23:46:19;23.00;99.90
27896;DHT22;15241;48.374;10.876;2023-07-16T23:51:37;22.80;99.90
27896;DHT22;15241;48.374;10.876;2023-07-16T23:56:54;22.60;99.90
